createdAt,value
2019-03-28T00:02:58.420Z,1.93
2019-03-28T00:09:01.151Z,2.10
2019-03-28T00:15:05.918Z,1.53
2019-03-28T00:21:08.912Z,1.57
2019-03-28T00:27:11.650Z,1.80
2019-03-28T00:33:14.380Z,1.93
2019-03-28T00:39:17.409Z,1.80
2019-03-28T00:45:20.134Z,1.90
2019-03-28T00:51:22.867Z,1.40
2019-03-28T00:57:25.599Z,1.50
2019-03-28T01:03:28.328Z,1.50
2019-03-28T01:09:31.401Z,1.53
2019-03-28T01:15:34.368Z,1.40
2019-03-28T01:21:37.135Z,1.43
2019-03-28T01:27:39.872Z,1.47
2019-03-28T01:33:43.152Z,1.60
2019-03-28T01:39:46.010Z,1.40
2019-03-28T01:45:48.995Z,1.50
2019-03-28T01:51:51.724Z,1.40
2019-03-28T01:57:54.456Z,1.50
2019-03-28T02:03:57.190Z,1.40
2019-03-28T02:09:59.917Z,1.40
2019-03-28T02:16:02.648Z,1.37
2019-03-28T02:22:05.733Z,1.47
2019-03-28T02:28:08.459Z,1.50
2019-03-28T02:34:11.184Z,1.33
2019-03-28T02:40:13.911Z,1.10
2019-03-28T02:46:16.823Z,1.40
2019-03-28T02:52:19.541Z,1.30
2019-03-28T02:58:22.273Z,1.50
2019-03-28T03:04:25.002Z,1.40
2019-03-28T03:10:27.733Z,1.50
2019-03-28T03:16:30.460Z,1.30
2019-03-28T03:22:33.201Z,1.20
2019-03-28T03:28:36.033Z,1.47
2019-03-28T03:34:38.854Z,1.30
2019-03-28T03:40:41.710Z,1.10
2019-03-28T03:46:44.512Z,1.00
2019-03-28T03:52:47.241Z,1.20
2019-03-28T03:58:49.964Z,1.03
2019-03-28T04:04:56.355Z,1.20
2019-03-28T04:10:57.242Z,1.00
2019-03-28T04:17:00.045Z,1.10
2019-03-28T04:23:03.866Z,1.10
2019-03-28T04:29:06.983Z,0.90
2019-03-28T04:35:09.708Z,1.37
2019-03-28T04:41:12.434Z,1.00
2019-03-28T04:47:15.161Z,1.10
2019-03-28T04:53:17.883Z,0.90
2019-03-28T04:59:20.618Z,0.90
2019-03-28T05:05:23.657Z,0.87
2019-03-28T05:11:26.379Z,0.83
2019-03-28T05:17:29.099Z,0.90
2019-03-28T05:23:32.132Z,0.90
2019-03-28T05:29:34.851Z,0.90
2019-03-28T05:35:37.644Z,0.90
2019-03-28T05:41:40.372Z,0.80
2019-03-28T05:47:43.097Z,0.83
2019-03-28T05:53:46.520Z,0.97
2019-03-28T05:59:49.430Z,0.70
2019-03-28T06:05:52.280Z,0.60
2019-03-28T06:11:55.156Z,0.80
2019-03-28T06:17:57.894Z,0.80
2019-03-28T06:24:00.613Z,0.60
2019-03-28T06:30:05.280Z,0.73
2019-03-28T06:36:08.013Z,0.70
2019-03-28T06:42:10.751Z,0.70
2019-03-28T06:48:13.476Z,0.70
2019-03-28T06:54:16.199Z,0.63
2019-03-28T07:00:18.945Z,0.70
2019-03-28T07:06:22.047Z,0.60
2019-03-28T07:12:24.771Z,0.90
2019-03-28T07:18:27.490Z,0.60
2019-03-28T07:24:30.559Z,0.70
2019-03-28T07:30:33.291Z,0.80
2019-03-28T07:36:36.008Z,0.70
2019-03-28T07:42:39.084Z,0.80
2019-03-28T07:48:41.815Z,0.80
2019-03-28T07:54:44.840Z,0.80
2019-03-28T08:00:47.573Z,0.80
2019-03-28T08:06:51.198Z,1.10
2019-03-28T08:12:54.875Z,0.97
2019-03-28T08:18:57.901Z,0.90
2019-03-28T08:25:00.638Z,0.93
2019-03-28T08:31:03.613Z,1.00
2019-03-28T08:37:06.732Z,0.80
2019-03-28T08:43:09.461Z,1.00
2019-03-28T08:49:12.187Z,1.17
2019-03-28T08:55:14.920Z,1.00
2019-03-28T09:01:17.668Z,1.10
2019-03-28T09:07:20.495Z,1.10
2019-03-28T09:13:23.585Z,1.40
2019-03-28T09:19:26.329Z,1.10
2019-03-28T09:25:29.136Z,1.07
2019-03-28T09:31:31.888Z,1.10
2019-03-28T09:37:34.627Z,1.03
2019-03-28T09:43:37.699Z,1.13
2019-03-28T09:49:40.720Z,1.20
2019-03-28T09:55:43.479Z,0.83
2019-03-28T10:05:07.624Z,1.27
2019-03-28T10:11:10.343Z,1.30
2019-03-28T10:17:13.072Z,1.23
2019-03-28T10:23:15.796Z,1.20
2019-03-28T10:29:18.768Z,1.37
2019-03-28T10:35:27.368Z,1.20
2019-03-28T10:41:30.096Z,1.10
2019-03-28T10:47:32.826Z,1.30
2019-03-28T10:53:35.561Z,1.27
2019-03-28T10:59:38.292Z,1.40
2019-03-28T11:05:41.044Z,1.30
2019-03-28T11:11:43.793Z,1.10
2019-03-28T11:17:47.548Z,1.07
2019-03-28T11:23:50.415Z,1.00
2019-03-28T11:29:53.169Z,1.07
2019-03-28T11:35:55.939Z,1.33
2019-03-28T11:42:00.534Z,1.30
2019-03-28T11:48:03.136Z,1.30
2019-03-28T11:54:06.158Z,1.30
2019-03-28T12:00:12.702Z,1.50
2019-03-28T12:06:15.437Z,1.33
2019-03-28T12:12:18.180Z,1.13
2019-03-28T12:18:20.918Z,1.20
2019-03-28T12:24:23.651Z,1.10
2019-03-28T12:30:26.408Z,1.00
2019-03-28T12:36:29.483Z,1.00
2019-03-28T12:42:32.232Z,1.20
2019-03-28T12:48:34.980Z,1.30
2019-03-28T12:54:37.708Z,1.03
2019-03-28T13:00:40.450Z,1.30
2019-03-28T13:06:43.175Z,1.10
2019-03-28T13:12:45.916Z,0.80
2019-03-28T13:18:48.637Z,1.40
2019-03-28T13:24:51.376Z,0.80
2019-03-28T13:30:54.175Z,1.10
2019-03-28T13:36:57.012Z,1.00
2019-03-28T13:42:59.755Z,1.10
2019-03-28T13:49:02.504Z,1.23
2019-03-28T13:55:08.066Z,0.83
2019-03-28T14:01:10.793Z,0.90
2019-03-28T14:07:15.768Z,1.00
2019-03-28T14:13:18.011Z,1.00
2019-03-28T14:19:20.846Z,0.90
2019-03-28T14:25:23.580Z,1.10
2019-03-28T14:31:26.317Z,0.90
2019-03-28T14:37:29.036Z,0.90
2019-03-28T14:43:31.764Z,0.67
2019-03-28T14:49:34.673Z,0.77
2019-03-28T14:55:37.471Z,0.80
2019-03-28T15:01:40.211Z,0.70
2019-03-28T15:07:42.952Z,0.80
2019-03-28T15:13:45.692Z,0.73
2019-03-28T15:19:48.429Z,0.90
2019-03-28T15:25:51.164Z,1.10
2019-03-28T15:31:53.892Z,2.17
2019-03-28T15:37:56.720Z,1.73
2019-03-28T15:43:59.459Z,1.90
2019-03-28T15:50:02.187Z,1.87
2019-03-28T15:56:04.921Z,1.80
2019-03-28T16:02:07.650Z,2.07
2019-03-28T16:08:10.376Z,2.00
2019-03-28T16:14:13.108Z,1.50
2019-03-28T16:20:15.841Z,1.70
2019-03-28T16:26:18.665Z,1.40
2019-03-28T16:32:21.414Z,1.60
2019-03-28T16:38:24.148Z,1.87
2019-03-28T16:44:26.878Z,1.63
2019-03-28T16:50:29.615Z,1.67
2019-03-28T16:56:32.344Z,1.57
2019-03-28T17:02:35.317Z,1.70
2019-03-28T17:08:38.320Z,1.80
2019-03-28T17:14:41.050Z,1.70
2019-03-28T17:20:43.780Z,1.73
2019-03-28T17:26:46.513Z,1.50
2019-03-28T17:32:49.255Z,1.60
2019-03-28T17:38:51.980Z,1.60
2019-03-28T17:44:54.968Z,3.40
2019-03-28T17:50:57.700Z,4.83
2019-03-28T17:57:00.431Z,6.17
2019-03-28T18:03:08.957Z,8.60
2019-03-28T18:09:08.001Z,9.13
2019-03-28T18:15:10.755Z,8.03
2019-03-28T18:21:13.545Z,8.00
2019-03-28T18:27:16.305Z,7.73
2019-03-28T18:33:19.865Z,7.67
2019-03-28T18:39:22.580Z,6.77
2019-03-28T18:45:25.317Z,7.00
2019-03-28T18:51:28.061Z,74.63
2019-03-28T18:57:30.801Z,29.80
2019-03-28T19:03:33.882Z,22.47
2019-03-28T19:09:36.619Z,18.77
2019-03-28T19:15:39.365Z,17.07
2019-03-28T19:21:42.481Z,16.27
2019-03-28T19:27:45.225Z,14.63
2019-03-28T19:33:47.978Z,14.17
2019-03-28T19:39:50.776Z,13.47
2019-03-28T19:45:53.527Z,13.07
2019-03-28T19:51:56.272Z,13.50
2019-03-28T19:57:59.023Z,12.73
2019-03-28T20:04:01.792Z,12.33
2019-03-28T20:10:15.796Z,11.77
2019-03-28T20:16:09.993Z,11.90
2019-03-28T20:22:12.737Z,11.43
2019-03-28T20:28:16.278Z,10.70
2019-03-28T20:34:19.303Z,10.00
2019-03-28T20:40:22.138Z,9.17
2019-03-28T20:46:24.877Z,9.40
2019-03-28T20:52:27.611Z,8.93
2019-03-28T20:58:30.357Z,9.03
2019-03-28T21:04:34.092Z,9.57
2019-03-28T21:10:37.269Z,9.17
2019-03-28T21:16:40.010Z,7.73
2019-03-28T21:22:42.744Z,8.03
2019-03-28T21:28:47.339Z,7.80
2019-03-28T21:34:49.948Z,8.60
2019-03-28T21:41:12.113Z,7.30
2019-03-28T21:47:14.896Z,7.80
2019-03-28T21:53:19.961Z,7.37
2019-03-28T21:59:22.289Z,7.00
2019-03-28T22:05:28.611Z,6.87
2019-03-28T22:11:30.491Z,6.80
2019-03-28T22:17:33.493Z,6.13
2019-03-28T22:23:36.226Z,7.03
2019-03-28T22:29:38.955Z,6.27
2019-03-28T22:35:41.675Z,6.10
2019-03-28T22:41:44.410Z,6.40
2019-03-28T22:47:47.140Z,6.03
2019-03-28T22:53:49.872Z,5.53
2019-03-28T22:59:52.922Z,5.67
2019-03-28T23:05:56.753Z,6.13
2019-03-28T23:11:59.624Z,5.70
2019-03-28T23:18:02.349Z,5.20
2019-03-28T23:24:10.990Z,5.20
2019-03-28T23:30:13.772Z,4.90
2019-03-28T23:36:16.496Z,4.80
2019-03-28T23:42:19.228Z,5.27
2019-03-28T23:48:22.265Z,5.07
2019-03-28T23:54:25.006Z,4.90
